createdAt,value
2024-04-21T00:00:11.157Z,96216.53
2024-04-21T00:05:12.811Z,96218.41
2024-04-21T00:10:14.513Z,96222.63
2024-04-21T00:15:16.237Z,96217.00
2024-04-21T00:20:18.261Z,96205.63
2024-04-21T00:25:20.043Z,96194.34
2024-04-21T00:30:21.714Z,96194.00
2024-04-21T00:35:23.423Z,96184.25
2024-04-21T00:40:25.271Z,96178.16
2024-04-21T00:45:31.857Z,96171.22
2024-04-21T00:50:39.661Z,96159.38
2024-04-21T00:55:41.443Z,96152.81
2024-04-21T01:00:43.383Z,96149.75
2024-04-21T01:05:45.217Z,96147.16
2024-04-21T01:10:46.958Z,96135.69
2024-04-21T01:15:53.700Z,96136.63
2024-04-21T01:20:55.473Z,96128.16
2024-04-21T01:25:57.181Z,96122.06
2024-04-21T01:30:59.050Z,96102.09
2024-04-21T01:36:00.737Z,96091.53
2024-04-21T01:41:02.488Z,96092.44
2024-04-21T01:46:04.523Z,96086.75
2024-04-21T01:51:06.259Z,96082.63
2024-04-21T01:56:07.946Z,96072.03
2024-04-21T02:01:09.754Z,96073.66
2024-04-21T02:06:11.532Z,96062.63
2024-04-21T02:11:13.252Z,96063.31
2024-04-21T02:16:15.071Z,96053.00
2024-04-21T02:21:16.750Z,96060.28
2024-04-21T02:26:18.436Z,96043.75
2024-04-21T02:31:20.184Z,96032.13
2024-04-21T02:36:21.873Z,96033.34
2024-04-21T02:41:23.587Z,96031.38
2024-04-21T02:46:25.331Z,96025.84
2024-04-21T02:51:27.427Z,96021.84
2024-04-21T02:56:29.109Z,96011.53
2024-04-21T03:01:30.894Z,96004.09
2024-04-21T03:06:32.597Z,96006.34
2024-04-21T03:11:34.292Z,96003.13
2024-04-21T03:16:35.991Z,95993.06
2024-04-21T03:21:37.959Z,95994.25
2024-04-21T03:26:39.621Z,95985.00
2024-04-21T03:31:41.304Z,95982.16
2024-04-21T03:36:42.987Z,95977.75
2024-04-21T03:41:45.588Z,95973.69
2024-04-21T03:46:47.258Z,95967.31
2024-04-21T03:51:49.002Z,95976.69
2024-04-21T03:56:50.703Z,95959.19
2024-04-21T04:01:52.391Z,95956.47
2024-04-21T04:06:54.125Z,95954.53
2024-04-21T04:11:55.873Z,95952.84
2024-04-21T04:16:57.552Z,95955.34
2024-04-21T04:21:59.244Z,95955.88
2024-04-21T04:27:00.933Z,95961.28
2024-04-21T04:32:02.613Z,95965.53
2024-04-21T04:37:04.352Z,95956.88
2024-04-21T04:42:06.658Z,95957.00
2024-04-21T04:47:08.386Z,95964.75
2024-04-21T04:52:11.972Z,95959.34
2024-04-21T04:57:13.724Z,95958.06
2024-04-21T05:02:15.417Z,95962.97
2024-04-21T05:07:17.167Z,95961.13
2024-04-21T05:12:19.724Z,95961.94
2024-04-21T05:17:21.442Z,95972.34
2024-04-21T05:22:23.162Z,95977.72
2024-04-21T05:27:24.869Z,95973.47
2024-04-21T05:32:26.653Z,95981.13
2024-04-21T05:37:28.455Z,95975.97
2024-04-21T05:42:30.145Z,95987.47
2024-04-21T05:47:31.919Z,95985.38
2024-04-21T05:52:33.827Z,95982.66
2024-04-21T05:57:35.494Z,95992.84
2024-04-21T06:02:37.188Z,95984.78
2024-04-21T06:07:38.895Z,95989.22
2024-04-21T06:12:40.619Z,95984.16
2024-04-21T06:17:42.355Z,95991.28
2024-04-21T06:22:44.066Z,95990.03
2024-04-21T06:27:45.752Z,95988.91
2024-04-21T06:32:47.567Z,95990.78
2024-04-21T06:37:49.262Z,95989.38
2024-04-21T06:42:50.958Z,95983.97
2024-04-21T06:47:52.682Z,95992.88
2024-04-21T06:52:54.428Z,95988.63
2024-04-21T06:57:56.151Z,95991.53
2024-04-21T07:02:57.910Z,95989.53
2024-04-21T07:07:59.598Z,95986.47
2024-04-21T07:13:01.368Z,95987.31
2024-04-21T07:18:03.226Z,95981.94
2024-04-21T07:23:04.968Z,95988.56
2024-04-21T07:28:06.699Z,95993.19
2024-04-21T07:33:08.408Z,95989.28
2024-04-21T07:38:10.231Z,95991.06
2024-04-21T07:43:13.269Z,95994.69
2024-04-21T07:48:15.144Z,96005.34
2024-04-21T07:53:16.849Z,95998.59
2024-04-21T07:58:18.602Z,95992.88
2024-04-21T08:03:20.342Z,96003.06
2024-04-21T08:08:22.119Z,96006.69
2024-04-21T08:13:23.876Z,96013.16
2024-04-21T08:18:26.002Z,96017.31
2024-04-21T08:23:30.077Z,96014.03
2024-04-21T08:28:31.935Z,96020.97
2024-04-21T08:33:33.675Z,96015.28
2024-04-21T08:38:35.496Z,96016.38
2024-04-21T08:43:37.720Z,96015.28
2024-04-21T08:48:39.432Z,96023.47
2024-04-21T08:53:41.106Z,96027.53
2024-04-21T08:58:42.786Z,96032.41
2024-04-21T09:03:44.475Z,96029.03
2024-04-21T09:08:46.164Z,96023.56
2024-04-21T09:13:47.870Z,96034.47
2024-04-21T09:18:49.636Z,96039.88
2024-04-21T09:23:51.347Z,96039.50
2024-04-21T09:28:53.182Z,96031.31
2024-04-21T09:33:54.954Z,96035.13
2024-04-21T09:38:56.625Z,96036.16
2024-04-21T09:43:58.289Z,96032.13
2024-04-21T09:49:00.209Z,96031.34
2024-04-21T09:54:01.977Z,96027.97
2024-04-21T09:59:03.614Z,96031.72
2024-04-21T10:04:05.402Z,96032.94
2024-04-21T10:09:07.116Z,96032.13
2024-04-21T10:14:08.828Z,96037.16
2024-04-21T10:19:10.565Z,96042.06
2024-04-21T10:24:13.201Z,96037.03
2024-04-21T10:29:14.935Z,96039.06
2024-04-21T10:34:16.663Z,96040.84
2024-04-21T10:39:27.810Z,96035.38
2024-04-21T10:44:29.482Z,96037.28
2024-04-21T10:49:31.144Z,96028.91
2024-04-21T10:54:32.842Z,96035.00
2024-04-21T10:59:34.497Z,96026.22
2024-04-21T11:04:37.383Z,96022.06
2024-04-21T11:09:39.230Z,96025.13
2024-04-21T11:14:40.901Z,96018.50
2024-04-21T11:19:42.615Z,96023.66
2024-04-21T11:24:45.348Z,96029.06
2024-04-21T11:29:47.477Z,96024.66
2024-04-21T11:34:49.366Z,96020.59
2024-04-21T11:39:51.039Z,96025.19
2024-04-21T11:44:53.504Z,96027.59
2024-04-21T11:49:55.174Z,96024.63
2024-04-21T11:54:56.902Z,96034.72
2024-04-21T11:59:59.107Z,96025.81
2024-04-21T12:05:01.692Z,96025.31
2024-04-21T12:10:03.647Z,96030.47
2024-04-21T12:15:05.671Z,96027.13
2024-04-21T12:20:07.527Z,96029.66
2024-04-21T12:25:09.201Z,96031.59
2024-04-21T12:30:12.681Z,96034.47
2024-04-21T12:35:17.143Z,96031.50
2024-04-21T12:40:18.980Z,96024.59
2024-04-21T12:45:20.718Z,96031.78
2024-04-21T12:50:22.480Z,96031.25
2024-04-21T12:55:24.174Z,96027.19
2024-04-21T13:00:25.899Z,96025.25
2024-04-21T13:05:27.591Z,96021.13
2024-04-21T13:10:29.404Z,96019.53
2024-04-21T13:15:31.145Z,96020.53
2024-04-21T13:20:32.860Z,96013.59
2024-04-21T13:25:34.605Z,96013.25
2024-04-21T13:30:36.387Z,96033.34
2024-04-21T13:35:38.048Z,96037.75
2024-04-21T13:40:39.801Z,96050.41
2024-04-21T13:45:41.505Z,96047.59
2024-04-21T13:50:43.186Z,96053.56
2024-04-21T13:55:45.158Z,96051.69
2024-04-21T14:00:47.363Z,96057.13
2024-04-21T14:05:49.118Z,96059.38
2024-04-21T14:10:50.828Z,96054.72
2024-04-21T14:15:52.540Z,96063.78
2024-04-21T14:20:56.058Z,96065.75
2024-04-21T14:25:57.825Z,96067.03
2024-04-21T14:31:02.392Z,96077.94
2024-04-21T14:36:04.369Z,96073.41
2024-04-21T14:41:09.035Z,96074.06
2024-04-21T14:46:10.743Z,96086.69
2024-04-21T14:51:12.445Z,96090.75
2024-04-21T14:56:15.428Z,96094.56
2024-04-21T15:01:17.219Z,96100.31
2024-04-21T15:06:19.466Z,96099.19
2024-04-21T15:11:21.738Z,96105.34
2024-04-21T15:16:23.540Z,96105.88
2024-04-21T15:21:25.274Z,96100.44
2024-04-21T15:26:26.957Z,96098.38
2024-04-21T15:31:28.687Z,96107.53
2024-04-21T15:36:30.359Z,96108.19
2024-04-21T15:41:32.461Z,96109.59
2024-04-21T15:46:34.233Z,96124.16
2024-04-21T15:51:36.573Z,96110.69
2024-04-21T15:56:38.262Z,96117.63
2024-04-21T16:01:40.011Z,96120.88
2024-04-21T16:06:41.766Z,96131.34
2024-04-21T16:11:43.466Z,96135.81
2024-04-21T16:16:45.195Z,96134.88
2024-04-21T16:21:47.032Z,96137.28
2024-04-21T16:26:48.826Z,96137.34
2024-04-21T16:31:50.607Z,96150.97
2024-04-21T16:36:52.445Z,96150.06
2024-04-21T16:41:54.321Z,96155.66
2024-04-21T16:46:56.514Z,96165.81
2024-04-21T16:52:00.915Z,96165.44
2024-04-21T17:02:12.640Z,96177.69
2024-04-21T17:07:18.531Z,96174.53
2024-04-21T17:12:22.803Z,96186.38
2024-04-21T17:17:24.616Z,96186.88
2024-04-21T17:22:26.466Z,96197.69
2024-04-21T17:27:28.215Z,96213.03
2024-04-21T17:32:31.308Z,96211.38
2024-04-21T17:37:33.090Z,96216.47
2024-04-21T17:42:34.781Z,96224.84
2024-04-21T17:47:36.560Z,96232.38
2024-04-21T17:52:38.367Z,96241.91
2024-04-21T17:57:40.119Z,96252.94
2024-04-21T18:02:41.857Z,96258.19
2024-04-21T18:07:44.794Z,96263.56
2024-04-21T18:12:46.506Z,96270.84
2024-04-21T18:17:48.428Z,96275.75
2024-04-21T18:22:50.144Z,96280.19
2024-04-21T18:27:51.832Z,96284.88
2024-04-21T18:32:53.562Z,96290.50
2024-04-21T18:37:55.465Z,96303.66
2024-04-21T18:42:57.375Z,96307.88
2024-04-21T18:47:59.105Z,96306.56
2024-04-21T18:53:00.838Z,96318.53
2024-04-21T18:58:02.713Z,96328.97
2024-04-21T19:03:05.009Z,96332.81
2024-04-21T19:08:09.905Z,96334.47
2024-04-21T19:13:11.720Z,96336.31
2024-04-21T19:18:14.948Z,96353.88
2024-04-21T19:23:17.550Z,96341.25
2024-04-21T19:28:19.278Z,96356.13
2024-04-21T19:33:21.928Z,96341.47
2024-04-21T19:38:24.095Z,96348.38
2024-04-21T19:43:25.806Z,96344.81
2024-04-21T19:48:27.611Z,96362.81
2024-04-21T19:53:29.326Z,96368.69
2024-04-21T19:58:31.403Z,96369.59
2024-04-21T20:03:33.161Z,96371.75
2024-04-21T20:08:34.884Z,96369.44
2024-04-21T20:13:36.992Z,96374.50
2024-04-21T20:18:41.982Z,96378.22
2024-04-21T20:23:43.899Z,96379.16
2024-04-21T20:28:45.899Z,96385.56
2024-04-21T20:33:47.795Z,96390.03
2024-04-21T20:38:49.972Z,96386.34
2024-04-21T20:43:52.045Z,96401.16
2024-04-21T20:48:54.049Z,96395.59
2024-04-21T20:53:55.751Z,96404.88
2024-04-21T20:58:58.504Z,96416.84
2024-04-21T21:04:00.369Z,96411.47
2024-04-21T21:09:02.098Z,96417.22
2024-04-21T21:14:05.199Z,96413.72
2024-04-21T21:19:06.935Z,96423.41
2024-04-21T21:24:11.652Z,96406.53
2024-04-21T21:29:13.328Z,96414.16
2024-04-21T21:34:15.000Z,96406.31
2024-04-21T21:39:16.691Z,96411.47
2024-04-21T21:44:18.459Z,96416.72
2024-04-21T21:49:20.218Z,96410.25
2024-04-21T21:54:21.900Z,96408.50
2024-04-21T21:59:23.654Z,96406.75
2024-04-21T22:04:25.614Z,96410.25
2024-04-21T22:14:51.667Z,96407.06
2024-04-21T22:19:53.427Z,96422.81
2024-04-21T22:24:55.102Z,96410.03
2024-04-21T22:29:56.778Z,96413.31
2024-04-21T22:34:58.460Z,96413.31
2024-04-21T22:40:00.163Z,96412.75
2024-04-21T22:45:01.888Z,96420.13
2024-04-21T22:50:03.633Z,96414.88
2024-04-21T22:55:05.477Z,96408.06
2024-04-21T23:00:07.740Z,96401.47
2024-04-21T23:05:09.403Z,96399.94
2024-04-21T23:10:11.129Z,96403.66
2024-04-21T23:15:12.831Z,96391.81
2024-04-21T23:20:14.560Z,96398.59
2024-04-21T23:25:16.243Z,96389.56
2024-04-21T23:30:17.955Z,96399.97
2024-04-21T23:35:19.642Z,96397.69
2024-04-21T23:40:21.409Z,96409.13
2024-04-21T23:45:23.073Z,96398.31
2024-04-21T23:50:24.780Z,96394.00
2024-04-21T23:55:26.488Z,96393.59
